createdAt,value
2022-10-08T00:03:52.355Z,2.30
2022-10-08T00:08:04.435Z,2.30
2022-10-08T00:12:40.602Z,2.10
2022-10-08T00:17:40.570Z,2.10
2022-10-08T00:22:40.583Z,2.10
2022-10-08T00:42:40.674Z,2.20
2022-10-08T00:47:44.391Z,2.20
2022-10-08T01:02:40.835Z,2.10
2022-10-08T01:07:51.135Z,2.10
2022-10-08T01:12:53.946Z,2.00
2022-10-08T01:27:43.445Z,2.30
2022-10-08T01:32:47.610Z,2.10
2022-10-08T01:47:43.807Z,2.40
2022-10-08T01:52:49.985Z,2.20
2022-10-08T01:57:41.167Z,2.20
2022-10-08T02:02:41.898Z,2.40
2022-10-08T02:07:42.215Z,2.40
2022-10-08T02:18:05.353Z,2.60
2022-10-08T02:32:47.797Z,2.30
2022-10-08T02:42:45.615Z,2.00
2022-10-08T02:47:45.498Z,2.00
2022-10-08T02:52:43.992Z,1.80
2022-10-08T02:57:47.777Z,1.80
2022-10-08T03:02:45.942Z,1.90
2022-10-08T03:07:41.564Z,1.90
2022-10-08T03:17:45.258Z,2.00
2022-10-08T03:22:41.166Z,2.00
2022-10-08T03:27:41.055Z,2.00
2022-10-08T03:47:41.208Z,1.80
2022-10-08T03:57:41.217Z,1.70
2022-10-08T04:12:41.313Z,1.80
2022-10-08T04:32:41.530Z,1.80
2022-10-08T04:37:41.241Z,1.80
2022-10-08T04:47:42.893Z,1.70
2022-10-08T04:52:41.324Z,1.80
2022-10-08T04:57:41.325Z,1.80
2022-10-08T05:02:41.377Z,2.10
2022-10-08T05:07:41.321Z,2.10
2022-10-08T05:12:41.357Z,1.60
2022-10-08T05:22:41.405Z,1.70
2022-10-08T05:27:41.419Z,1.70
2022-10-08T05:32:41.410Z,1.70
2022-10-08T05:37:41.410Z,1.70
2022-10-08T05:47:41.477Z,1.60
2022-10-08T06:02:41.564Z,1.70
2022-10-08T06:17:41.556Z,1.60
2022-10-08T06:22:41.500Z,1.80
2022-10-08T06:37:46.512Z,1.80
2022-10-08T06:57:41.714Z,1.80
2022-10-08T07:07:41.642Z,1.60
2022-10-08T07:12:41.701Z,2.40
2022-10-08T07:22:41.665Z,1.80
2022-10-08T07:32:41.712Z,2.50
2022-10-08T07:42:42.004Z,2.20
2022-10-08T07:47:41.771Z,2.20
2022-10-08T07:52:41.725Z,2.50
2022-10-08T07:57:41.775Z,2.50
2022-10-08T08:07:41.820Z,2.50
2022-10-08T08:12:41.874Z,2.10
2022-10-08T08:17:41.842Z,2.10
2022-10-08T08:22:41.866Z,2.30
2022-10-08T08:27:41.880Z,2.30
2022-10-08T08:32:41.860Z,2.10
2022-10-08T08:37:41.863Z,2.10
2022-10-08T08:42:50.038Z,1.70
2022-10-08T08:47:51.839Z,1.70
2022-10-08T08:52:42.628Z,1.70
2022-10-08T08:57:51.899Z,1.70
2022-10-08T09:02:57.599Z,1.40
2022-10-08T09:07:45.861Z,1.40
2022-10-08T09:12:43.153Z,1.80
2022-10-08T09:17:42.613Z,1.80
2022-10-08T09:22:42.116Z,1.40
2022-10-08T09:28:00.285Z,1.40
2022-10-08T09:32:42.076Z,1.60
2022-10-08T09:37:45.525Z,1.60
2022-10-08T09:42:42.174Z,1.70
2022-10-08T09:47:42.086Z,1.70
2022-10-08T09:52:42.249Z,1.80
2022-10-08T09:57:45.104Z,1.80
2022-10-08T10:02:42.137Z,1.70
2022-10-08T10:07:43.762Z,1.70
2022-10-08T10:12:47.324Z,1.40
2022-10-08T10:17:49.949Z,1.40
2022-10-08T10:22:50.336Z,1.30
2022-10-08T10:27:49.010Z,1.30
2022-10-08T10:37:58.938Z,1.30
2022-10-08T10:42:47.608Z,1.50
2022-10-08T10:47:42.234Z,1.50
2022-10-08T10:52:42.264Z,1.30
2022-10-08T10:58:02.130Z,1.30
2022-10-08T11:02:48.199Z,1.00
2022-10-08T11:07:50.597Z,1.00
2022-10-08T11:12:55.905Z,1.50
2022-10-08T11:17:48.775Z,1.50
2022-10-08T11:22:52.744Z,1.10
2022-10-08T11:27:50.812Z,1.10
2022-10-08T11:32:48.861Z,1.30
2022-10-08T11:38:02.026Z,1.30
2022-10-08T11:47:42.388Z,1.60
2022-10-08T11:52:42.492Z,1.30
2022-10-08T12:02:43.226Z,1.60
2022-10-08T12:07:48.294Z,1.60
2022-10-08T12:12:50.140Z,1.30
2022-10-08T12:17:53.348Z,1.30
2022-10-08T12:22:43.994Z,1.20
2022-10-08T12:27:42.545Z,1.20
2022-10-08T12:32:42.487Z,1.10
2022-10-08T12:37:52.952Z,1.10
2022-10-08T12:42:43.431Z,1.40
2022-10-08T12:47:52.520Z,1.40
2022-10-08T12:52:42.814Z,1.30
2022-10-08T12:57:43.064Z,1.30
2022-10-08T13:02:43.402Z,1.30
2022-10-08T13:07:43.065Z,1.30
2022-10-08T13:12:42.735Z,1.50
2022-10-08T13:17:42.644Z,1.50
2022-10-08T13:27:42.656Z,1.70
2022-10-08T13:37:42.704Z,1.70
2022-10-08T13:42:47.409Z,1.80
2022-10-08T13:47:42.767Z,1.80
2022-10-08T13:57:42.792Z,1.60
2022-10-08T14:02:42.759Z,1.30
2022-10-08T14:12:42.857Z,1.70
2022-10-08T14:17:43.223Z,1.70
2022-10-08T14:22:42.859Z,1.50
2022-10-08T14:27:43.211Z,1.50
2022-10-08T14:32:43.723Z,2.20
2022-10-08T14:37:42.847Z,2.20
2022-10-08T14:42:43.075Z,1.50
2022-10-08T14:47:42.934Z,1.50
2022-10-08T14:52:44.493Z,1.60
2022-10-08T14:57:43.070Z,1.60
2022-10-08T15:02:42.938Z,1.70
2022-10-08T15:07:42.935Z,1.70
2022-10-08T15:12:42.918Z,1.70
2022-10-08T15:17:43.086Z,1.50
2022-10-08T15:22:42.955Z,1.50
2022-10-08T15:27:43.086Z,1.50
2022-10-08T15:32:42.951Z,1.50
2022-10-08T15:37:43.091Z,1.40
2022-10-08T15:42:43.003Z,1.40
2022-10-08T15:47:43.046Z,1.60
2022-10-08T15:52:46.345Z,1.60
2022-10-08T15:57:43.084Z,1.60
2022-10-08T16:02:43.179Z,1.60
2022-10-08T16:07:43.087Z,1.70
2022-10-08T16:22:43.187Z,2.10
2022-10-08T16:27:43.144Z,2.10
2022-10-08T16:32:43.187Z,2.10
2022-10-08T16:42:43.377Z,1.80
2022-10-08T16:52:43.202Z,1.80
2022-10-08T16:57:43.240Z,2.10
2022-10-08T17:02:43.362Z,2.10
2022-10-08T17:17:45.088Z,2.30
2022-10-08T17:27:43.291Z,3.10
2022-10-08T17:32:43.559Z,3.10
2022-10-08T17:37:43.315Z,3.30
2022-10-08T17:38:35.411Z,3.30
2022-10-08T17:47:43.364Z,4.20
2022-10-08T17:52:43.399Z,4.20
2022-10-08T18:02:45.280Z,5.00
2022-10-08T18:07:43.468Z,4.20
2022-10-08T18:17:43.423Z,2.70
2022-10-08T18:27:43.444Z,3.30
2022-10-08T18:32:43.446Z,3.30
2022-10-08T18:37:45.009Z,3.10
2022-10-08T18:47:43.495Z,3.30
2022-10-08T19:02:43.729Z,3.70
2022-10-08T19:12:43.557Z,4.90
2022-10-08T19:17:43.572Z,4.10
2022-10-08T19:27:43.610Z,3.60
2022-10-08T19:42:43.674Z,3.60
2022-10-08T19:52:44.471Z,5.80
2022-10-08T19:57:43.688Z,9.80
2022-10-08T20:02:43.737Z,9.80
2022-10-08T20:07:43.962Z,7.10
2022-10-08T20:27:43.771Z,4.80
2022-10-08T20:32:43.735Z,4.80
2022-10-08T20:47:43.821Z,4.40
2022-10-08T20:52:43.799Z,4.40
2022-10-08T20:57:43.823Z,3.70
2022-10-08T21:02:43.841Z,3.70
2022-10-08T21:07:43.880Z,6.10
2022-10-08T21:12:43.863Z,6.10
2022-10-08T21:17:43.887Z,3.40
2022-10-08T21:22:43.860Z,3.40
2022-10-08T21:32:45.212Z,3.90
2022-10-08T21:37:43.905Z,3.50
2022-10-08T21:47:44.044Z,2.90
2022-10-08T21:52:43.947Z,2.90
2022-10-08T22:02:44.016Z,3.40
2022-10-08T22:07:44.067Z,2.70
2022-10-08T22:12:44.027Z,2.70
2022-10-08T22:17:44.011Z,4.30
2022-10-08T22:22:44.057Z,4.30
2022-10-08T22:32:44.103Z,4.30
2022-10-08T22:37:44.066Z,4.00
2022-10-08T22:42:44.121Z,4.00
2022-10-08T22:47:45.110Z,4.20
2022-10-08T22:52:47.558Z,4.20
2022-10-08T23:07:44.237Z,4.10
2022-10-08T23:17:44.217Z,3.80
2022-10-08T23:22:44.175Z,3.80
2022-10-08T23:27:44.204Z,3.70
2022-10-08T23:32:44.249Z,3.70
2022-10-08T23:37:46.202Z,3.30
2022-10-08T23:47:44.278Z,3.20
2022-10-08T23:57:44.320Z,3.70
